Philo, Ohio
Current Conditions -  °F | °C
As of 5:53 PM on Saturday 20 Dec 2014 (Local Time) from KZZV Reporting Station
Overcast Overcast  
Wind Chill: 30°   Ceiling: 2300
Heat Index: 30°   Visibility: 10mi
Dew Point: 22°   Wind: 3mph
Humidity: 72%   Direction: 310°NW
Pressure: 30.26"   Gusts: NA
Location:  39.86°N, 81.91°W
Report Text: KZZV 202253Z AUTO 31003KT 10SM OVC023 M01/M06 A3026 RMK AO2 SLP256 T10111056
Loading
Personal Weather Stations






























Interactive Weather Map New forecast layout! Learn more

10-Day Weather Forecast

Advertisements
Track Severe Weather on mobile